Monte Grande, Argentina
Current Conditions -  °F | °C
As of 5:00 PM on Wednesday 17 Dec 2014 (Local Time) from SAEZ Reporting Station
Few Clouds Few Clouds  
Wind Chill: 86°   Ceiling: Unl
Heat Index: 86°   Visibility: 6mi
Dew Point: 55°   Wind: 9mph
Humidity: 35%   Direction: 210°SSW
Pressure: 29.83"   Gusts: NA
Location:  34.83°S, 58.47°W
Report Text: SAEZ 172000Z 21008KT 9999 FEW045 FEW050TCU 30/13 Q1010
Loading
Personal Weather Stations






























Interactive Weather Map New forecast layout! Learn more

10-Day Weather Forecast

Advertisements
Track Severe Weather on mobile